sensor_id;sensor_type;location;lat;lon;timestamp;temperature;humidity
8611;DHT22;4343;53.648;10.098;2022-09-01T00:02:25;15.60;99.90
8611;DHT22;4343;53.648;10.098;2022-09-01T00:04:53;15.60;99.90
8611;DHT22;4343;53.648;10.098;2022-09-01T00:07:24;15.50;99.90
8611;DHT22;4343;53.648;10.098;2022-09-01T00:09:50;15.50;99.90
8611;DHT22;4343;53.648;10.098;2022-09-01T00:12:16;15.50;99.90
8611;DHT22;4343;53.648;10.098;2022-09-01T00:14:42;15.40;99.90
8611;DHT22;4343;53.648;10.098;2022-09-01T00:17:10;15.50;99.90
8611;DHT22;4343;53.648;10.098;2022-09-01T00:19:36;15.50;99.90
8611;DHT22;4343;53.648;10.098;2022-09-01T00:22:04;15.40;99.90
8611;DHT22;4343;53.648;10.098;2022-09-01T00:24:29;15.40;99.90
8611;DHT22;4343;53.648;10.098;2022-09-01T00:26:56;15.40;99.90
8611;DHT22;4343;53.648;10.098;2022-09-01T00:29:22;15.30;99.90
8611;DHT22;4343;53.648;10.098;2022-09-01T00:31:48;15.30;99.90
8611;DHT22;4343;53.648;10.098;2022-09-01T00:34:15;15.30;99.90
8611;DHT22;4343;53.648;10.098;2022-09-01T00:36:41;15.20;99.90
8611;DHT22;4343;53.648;10.098;2022-09-01T00:39:08;15.20;99.90
8611;DHT22;4343;53.648;10.098;2022-09-01T00:41:35;15.20;99.90
8611;DHT22;4343;53.648;10.098;2022-09-01T00:44:06;15.10;99.90
8611;DHT22;4343;53.648;10.098;2022-09-01T00:46:38;15.20;99.90
8611;DHT22;4343;53.648;10.098;2022-09-01T00:49:08;15.10;99.90
8611;DHT22;4343;53.648;10.098;2022-09-01T00:51:36;15.10;99.90
8611;DHT22;4343;53.648;10.098;2022-09-01T00:54:05;15.10;99.90
8611;DHT22;4343;53.648;10.098;2022-09-01T00:56:31;15.00;99.90
8611;DHT22;4343;53.648;10.098;2022-09-01T00:58:59;15.00;99.90
8611;DHT22;4343;53.648;10.098;2022-09-01T01:01:24;15.00;99.90
8611;DHT22;4343;53.648;10.098;2022-09-01T01:03:50;14.90;99.90
8611;DHT22;4343;53.648;10.098;2022-09-01T01:06:16;14.90;99.90
8611;DHT22;4343;53.648;10.098;2022-09-01T01:08:46;14.90;99.90
8611;DHT22;4343;53.648;10.098;2022-09-01T01:11:24;14.90;99.90
8611;DHT22;4343;53.648;10.098;2022-09-01T01:13:54;14.80;99.90
8611;DHT22;4343;53.648;10.098;2022-09-01T01:16:25;14.80;99.90
8611;DHT22;4343;53.648;10.098;2022-09-01T01:18:52;14.80;99.90
8611;DHT22;4343;53.648;10.098;2022-09-01T01:21:25;14.80;99.90
8611;DHT22;4343;53.648;10.098;2022-09-01T01:24:28;14.80;99.90
8611;DHT22;4343;53.648;10.098;2022-09-01T01:26:56;14.70;99.90
8611;DHT22;4343;53.648;10.098;2022-09-01T01:29:25;14.60;99.90
8611;DHT22;4343;53.648;10.098;2022-09-01T01:31:53;14.60;99.90
8611;DHT22;4343;53.648;10.098;2022-09-01T01:34:19;14.50;99.90
8611;DHT22;4343;53.648;10.098;2022-09-01T01:36:45;14.50;99.90
8611;DHT22;4343;53.648;10.098;2022-09-01T01:39:18;14.40;99.90
8611;DHT22;4343;53.648;10.098;2022-09-01T01:41:45;14.40;99.90
8611;DHT22;4343;53.648;10.098;2022-09-01T01:44:14;14.30;99.90
8611;DHT22;4343;53.648;10.098;2022-09-01T01:46:43;14.30;99.90
8611;DHT22;4343;53.648;10.098;2022-09-01T01:49:10;14.20;99.90
8611;DHT22;4343;53.648;10.098;2022-09-01T01:51:38;14.20;99.90
8611;DHT22;4343;53.648;10.098;2022-09-01T01:54:04;14.10;99.90
8611;DHT22;4343;53.648;10.098;2022-09-01T01:56:32;14.10;99.90
8611;DHT22;4343;53.648;10.098;2022-09-01T01:58:58;14.10;99.90
8611;DHT22;4343;53.648;10.098;2022-09-01T02:01:27;14.10;99.90
8611;DHT22;4343;53.648;10.098;2022-09-01T02:03:55;14.00;99.90
8611;DHT22;4343;53.648;10.098;2022-09-01T02:06:23;14.00;99.90
8611;DHT22;4343;53.648;10.098;2022-09-01T02:08:54;14.00;99.90
8611;DHT22;4343;53.648;10.098;2022-09-01T02:11:24;14.00;99.90
8611;DHT22;4343;53.648;10.098;2022-09-01T02:13:50;14.00;99.90
8611;DHT22;4343;53.648;10.098;2022-09-01T02:16:24;13.90;99.90
8611;DHT22;4343;53.648;10.098;2022-09-01T02:18:50;13.90;99.90
8611;DHT22;4343;53.648;10.098;2022-09-01T02:21:18;13.90;99.90
8611;DHT22;4343;53.648;10.098;2022-09-01T02:23:45;13.80;99.90
8611;DHT22;4343;53.648;10.098;2022-09-01T02:26:11;13.80;99.90
8611;DHT22;4343;53.648;10.098;2022-09-01T02:28:37;13.80;99.90
8611;DHT22;4343;53.648;10.098;2022-09-01T02:31:06;13.70;99.90
8611;DHT22;4343;53.648;10.098;2022-09-01T02:33:33;13.70;99.90
8611;DHT22;4343;53.648;10.098;2022-09-01T02:35:59;13.60;99.90
8611;DHT22;4343;53.648;10.098;2022-09-01T02:38:26;13.60;99.90
8611;DHT22;4343;53.648;10.098;2022-09-01T02:40:55;13.60;99.90
8611;DHT22;4343;53.648;10.098;2022-09-01T02:43:21;13.60;99.90
8611;DHT22;4343;53.648;10.098;2022-09-01T02:45:51;13.60;99.90
8611;DHT22;4343;53.648;10.098;2022-09-01T02:48:27;13.50;99.90
8611;DHT22;4343;53.648;10.098;2022-09-01T02:50:57;13.50;99.90
8611;DHT22;4343;53.648;10.098;2022-09-01T02:53:24;13.50;99.90
8611;DHT22;4343;53.648;10.098;2022-09-01T02:55:49;13.50;99.90
8611;DHT22;4343;53.648;10.098;2022-09-01T02:58:16;13.50;99.90
8611;DHT22;4343;53.648;10.098;2022-09-01T03:00:45;13.50;99.90
8611;DHT22;4343;53.648;10.098;2022-09-01T03:03:11;13.40;99.90
8611;DHT22;4343;53.648;10.098;2022-09-01T03:05:43;13.40;99.90
8611;DHT22;4343;53.648;10.098;2022-09-01T03:08:10;13.40;99.90
8611;DHT22;4343;53.648;10.098;2022-09-01T03:10:40;13.40;99.90
8611;DHT22;4343;53.648;10.098;2022-09-01T03:13:18;13.40;99.90
8611;DHT22;4343;53.648;10.098;2022-09-01T03:15:45;13.40;99.90
8611;DHT22;4343;53.648;10.098;2022-09-01T03:18:12;13.40;99.90
8611;DHT22;4343;53.648;10.098;2022-09-01T03:20:40;13.30;99.90
8611;DHT22;4343;53.648;10.098;2022-09-01T03:23:09;13.30;99.90
8611;DHT22;4343;53.648;10.098;2022-09-01T03:25:37;13.30;99.90
8611;DHT22;4343;53.648;10.098;2022-09-01T03:28:04;13.30;99.90
8611;DHT22;4343;53.648;10.098;2022-09-01T03:30:32;13.30;99.90
8611;DHT22;4343;53.648;10.098;2022-09-01T03:32:59;13.30;99.90
8611;DHT22;4343;53.648;10.098;2022-09-01T03:35:26;13.20;99.90
8611;DHT22;4343;53.648;10.098;2022-09-01T03:37:53;13.20;99.90
8611;DHT22;4343;53.648;10.098;2022-09-01T03:40:22;13.20;99.90
8611;DHT22;4343;53.648;10.098;2022-09-01T03:42:47;13.20;99.90
8611;DHT22;4343;53.648;10.098;2022-09-01T03:45:13;13.20;99.90
8611;DHT22;4343;53.648;10.098;2022-09-01T03:47:41;13.20;99.90
8611;DHT22;4343;53.648;10.098;2022-09-01T03:50:12;13.30;99.90
8611;DHT22;4343;53.648;10.098;2022-09-01T03:52:45;13.30;99.90
8611;DHT22;4343;53.648;10.098;2022-09-01T03:55:14;13.30;99.90
8611;DHT22;4343;53.648;10.098;2022-09-01T03:57:51;13.40;99.90
8611;DHT22;4343;53.648;10.098;2022-09-01T04:00:19;13.40;99.90
8611;DHT22;4343;53.648;10.098;2022-09-01T04:02:49;13.50;99.90
8611;DHT22;4343;53.648;10.098;2022-09-01T04:05:17;13.50;99.90
8611;DHT22;4343;53.648;10.098;2022-09-01T04:07:44;13.50;99.90
8611;DHT22;4343;53.648;10.098;2022-09-01T04:10:11;13.50;99.90
8611;DHT22;4343;53.648;10.098;2022-09-01T04:12:37;13.40;99.90
8611;DHT22;4343;53.648;10.098;2022-09-01T04:15:04;13.50;99.90
8611;DHT22;4343;53.648;10.098;2022-09-01T04:17:30;13.50;99.90
8611;DHT22;4343;53.648;10.098;2022-09-01T04:20:14;13.50;99.90
8611;DHT22;4343;53.648;10.098;2022-09-01T04:22:44;13.50;99.90
8611;DHT22;4343;53.648;10.098;2022-09-01T04:25:12;13.50;99.90
8611;DHT22;4343;53.648;10.098;2022-09-01T04:27:38;13.50;99.90
8611;DHT22;4343;53.648;10.098;2022-09-01T04:30:05;13.50;99.90
8611;DHT22;4343;53.648;10.098;2022-09-01T04:32:36;13.50;99.90
8611;DHT22;4343;53.648;10.098;2022-09-01T04:35:03;13.50;99.90
8611;DHT22;4343;53.648;10.098;2022-09-01T04:37:29;13.50;99.90
8611;DHT22;4343;53.648;10.098;2022-09-01T04:39:56;13.50;99.90
8611;DHT22;4343;53.648;10.098;2022-09-01T04:42:27;13.40;99.90
8611;DHT22;4343;53.648;10.098;2022-09-01T04:44:53;13.40;99.90
8611;DHT22;4343;53.648;10.098;2022-09-01T04:47:22;13.50;99.90
8611;DHT22;4343;53.648;10.098;2022-09-01T04:49:57;13.40;99.90
8611;DHT22;4343;53.648;10.098;2022-09-01T04:52:26;13.40;99.90
8611;DHT22;4343;53.648;10.098;2022-09-01T04:54:52;13.40;99.90
8611;DHT22;4343;53.648;10.098;2022-09-01T04:57:19;13.40;99.90
8611;DHT22;4343;53.648;10.098;2022-09-01T04:59:45;13.30;99.90
8611;DHT22;4343;53.648;10.098;2022-09-01T05:02:11;13.30;99.90
8611;DHT22;4343;53.648;10.098;2022-09-01T05:04:36;13.30;99.90
8611;DHT22;4343;53.648;10.098;2022-09-01T05:07:05;13.30;99.90
8611;DHT22;4343;53.648;10.098;2022-09-01T05:09:34;13.30;99.90
8611;DHT22;4343;53.648;10.098;2022-09-01T05:12:00;13.30;99.90
8611;DHT22;4343;53.648;10.098;2022-09-01T05:14:36;13.30;99.90
8611;DHT22;4343;53.648;10.098;2022-09-01T05:17:02;13.30;99.90
8611;DHT22;4343;53.648;10.098;2022-09-01T05:19:35;13.30;99.90
8611;DHT22;4343;53.648;10.098;2022-09-01T05:22:02;13.30;99.90
8611;DHT22;4343;53.648;10.098;2022-09-01T05:24:29;13.30;99.90
8611;DHT22;4343;53.648;10.098;2022-09-01T05:26:57;13.40;99.90
8611;DHT22;4343;53.648;10.098;2022-09-01T05:29:23;13.30;99.90
8611;DHT22;4343;53.648;10.098;2022-09-01T05:31:50;13.30;99.90
8611;DHT22;4343;53.648;10.098;2022-09-01T05:34:16;13.30;99.90
8611;DHT22;4343;53.648;10.098;2022-09-01T05:36:47;13.30;99.90
8611;DHT22;4343;53.648;10.098;2022-09-01T05:39:16;13.30;99.90
8611;DHT22;4343;53.648;10.098;2022-09-01T05:41:45;13.20;99.90
8611;DHT22;4343;53.648;10.098;2022-09-01T05:44:12;13.20;99.90
8611;DHT22;4343;53.648;10.098;2022-09-01T05:46:40;13.10;99.90
8611;DHT22;4343;53.648;10.098;2022-09-01T05:49:09;13.10;99.90
8611;DHT22;4343;53.648;10.098;2022-09-01T05:51:39;13.10;99.90
8611;DHT22;4343;53.648;10.098;2022-09-01T05:54:05;13.10;99.90
8611;DHT22;4343;53.648;10.098;2022-09-01T05:56:33;13.20;99.90
8611;DHT22;4343;53.648;10.098;2022-09-01T05:59:00;13.20;99.90
8611;DHT22;4343;53.648;10.098;2022-09-01T06:01:27;13.20;99.90
8611;DHT22;4343;53.648;10.098;2022-09-01T06:03:56;13.20;99.90
8611;DHT22;4343;53.648;10.098;2022-09-01T06:06:27;13.30;99.90
8611;DHT22;4343;53.648;10.098;2022-09-01T06:08:53;13.30;99.90
8611;DHT22;4343;53.648;10.098;2022-09-01T06:11:22;13.30;99.90
8611;DHT22;4343;53.648;10.098;2022-09-01T06:13:49;13.40;99.90
8611;DHT22;4343;53.648;10.098;2022-09-01T06:16:17;13.40;99.90
8611;DHT22;4343;53.648;10.098;2022-09-01T06:18:44;13.50;99.90
8611;DHT22;4343;53.648;10.098;2022-09-01T06:21:11;13.40;99.90
8611;DHT22;4343;53.648;10.098;2022-09-01T06:23:40;13.50;99.90
8611;DHT22;4343;53.648;10.098;2022-09-01T06:26:15;13.50;99.90
8611;DHT22;4343;53.648;10.098;2022-09-01T06:28:42;13.60;99.90
8611;DHT22;4343;53.648;10.098;2022-09-01T06:31:07;13.70;99.90
8611;DHT22;4343;53.648;10.098;2022-09-01T06:33:34;13.80;99.90
8611;DHT22;4343;53.648;10.098;2022-09-01T06:36:01;14.00;99.90
8611;DHT22;4343;53.648;10.098;2022-09-01T06:38:28;14.30;99.90
8611;DHT22;4343;53.648;10.098;2022-09-01T06:41:01;14.50;99.90
8611;DHT22;4343;53.648;10.098;2022-09-01T06:43:29;14.70;99.90
8611;DHT22;4343;53.648;10.098;2022-09-01T06:45:55;14.90;99.90
8611;DHT22;4343;53.648;10.098;2022-09-01T06:48:21;15.10;99.90
8611;DHT22;4343;53.648;10.098;2022-09-01T06:50:47;15.30;99.90
8611;DHT22;4343;53.648;10.098;2022-09-01T06:53:14;15.60;99.90
8611;DHT22;4343;53.648;10.098;2022-09-01T06:55:46;15.90;99.90
8611;DHT22;4343;53.648;10.098;2022-09-01T06:58:12;16.20;99.90
8611;DHT22;4343;53.648;10.098;2022-09-01T07:00:39;16.50;99.90
8611;DHT22;4343;53.648;10.098;2022-09-01T07:03:10;16.80;99.90
8611;DHT22;4343;53.648;10.098;2022-09-01T07:05:39;17.00;99.90
8611;DHT22;4343;53.648;10.098;2022-09-01T07:08:05;17.20;99.90
8611;DHT22;4343;53.648;10.098;2022-09-01T07:10:42;17.30;99.90
8611;DHT22;4343;53.648;10.098;2022-09-01T07:13:12;17.30;99.90
8611;DHT22;4343;53.648;10.098;2022-09-01T07:15:42;17.30;99.90
8611;DHT22;4343;53.648;10.098;2022-09-01T07:18:07;17.30;99.90
8611;DHT22;4343;53.648;10.098;2022-09-01T07:20:35;17.30;99.90
8611;DHT22;4343;53.648;10.098;2022-09-01T07:23:02;17.30;99.90
8611;DHT22;4343;53.648;10.098;2022-09-01T07:25:28;17.40;99.90
8611;DHT22;4343;53.648;10.098;2022-09-01T07:27:53;17.40;99.90
8611;DHT22;4343;53.648;10.098;2022-09-01T07:30:20;17.50;99.90
8611;DHT22;4343;53.648;10.098;2022-09-01T07:32:46;17.60;99.90
8611;DHT22;4343;53.648;10.098;2022-09-01T07:35:14;17.80;99.90
8611;DHT22;4343;53.648;10.098;2022-09-01T07:37:41;17.90;99.90
8611;DHT22;4343;53.648;10.098;2022-09-01T07:40:13;18.10;99.90
8611;DHT22;4343;53.648;10.098;2022-09-01T07:42:47;18.40;99.90
8611;DHT22;4343;53.648;10.098;2022-09-01T07:45:15;18.70;99.90
8611;DHT22;4343;53.648;10.098;2022-09-01T07:47:42;18.90;99.90
8611;DHT22;4343;53.648;10.098;2022-09-01T07:50:10;19.10;99.90
8611;DHT22;4343;53.648;10.098;2022-09-01T07:52:38;19.40;99.90
8611;DHT22;4343;53.648;10.098;2022-09-01T07:55:12;19.70;99.90
8611;DHT22;4343;53.648;10.098;2022-09-01T07:57:40;20.00;99.90
8611;DHT22;4343;53.648;10.098;2022-09-01T08:00:11;20.30;99.90
8611;DHT22;4343;53.648;10.098;2022-09-01T08:02:37;20.50;99.90
8611;DHT22;4343;53.648;10.098;2022-09-01T08:05:05;20.70;99.70
8611;DHT22;4343;53.648;10.098;2022-09-01T08:07:35;20.90;99.90
8611;DHT22;4343;53.648;10.098;2022-09-01T08:10:01;21.20;99.00
8611;DHT22;4343;53.648;10.098;2022-09-01T08:12:27;21.40;97.80
8611;DHT22;4343;53.648;10.098;2022-09-01T08:14:52;21.50;97.40
8611;DHT22;4343;53.648;10.098;2022-09-01T08:17:18;21.60;97.40
8611;DHT22;4343;53.648;10.098;2022-09-01T08:19:44;21.70;96.90
8611;DHT22;4343;53.648;10.098;2022-09-01T08:22:11;21.70;97.10
8611;DHT22;4343;53.648;10.098;2022-09-01T08:24:37;21.70;96.80
8611;DHT22;4343;53.648;10.098;2022-09-01T08:27:03;21.60;96.80
8611;DHT22;4343;53.648;10.098;2022-09-01T08:29:29;21.60;96.50
8611;DHT22;4343;53.648;10.098;2022-09-01T08:31:54;21.60;96.80
8611;DHT22;4343;53.648;10.098;2022-09-01T08:34:20;21.50;96.00
8611;DHT22;4343;53.648;10.098;2022-09-01T08:36:45;21.50;95.20
8611;DHT22;4343;53.648;10.098;2022-09-01T08:39:11;21.50;95.40
8611;DHT22;4343;53.648;10.098;2022-09-01T08:41:51;21.50;95.90
8611;DHT22;4343;53.648;10.098;2022-09-01T08:44:44;21.50;95.00
8611;DHT22;4343;53.648;10.098;2022-09-01T08:47:14;21.60;95.40
8611;DHT22;4343;53.648;10.098;2022-09-01T08:49:41;21.60;96.00
8611;DHT22;4343;53.648;10.098;2022-09-01T08:52:21;21.70;95.60
8611;DHT22;4343;53.648;10.098;2022-09-01T08:55:02;21.70;95.30
8611;DHT22;4343;53.648;10.098;2022-09-01T08:57:36;21.80;94.90
8611;DHT22;4343;53.648;10.098;2022-09-01T09:00:05;21.80;94.80
8611;DHT22;4343;53.648;10.098;2022-09-01T09:02:36;22.00;94.60
8611;DHT22;4343;53.648;10.098;2022-09-01T09:10:42;22.20;94.20
8611;DHT22;4343;53.648;10.098;2022-09-01T09:16:15;22.30;93.80
8611;DHT22;4343;53.648;10.098;2022-09-01T09:19:00;22.30;93.80
8611;DHT22;4343;53.648;10.098;2022-09-01T09:21:41;22.40;93.30
8611;DHT22;4343;53.648;10.098;2022-09-01T09:26:56;22.60;92.90
8611;DHT22;4343;53.648;10.098;2022-09-01T09:29:24;22.70;93.30
8611;DHT22;4343;53.648;10.098;2022-09-01T09:32:09;22.70;92.90
8611;DHT22;4343;53.648;10.098;2022-09-01T09:34:37;22.80;92.80
8611;DHT22;4343;53.648;10.098;2022-09-01T09:37:19;22.90;93.00
8611;DHT22;4343;53.648;10.098;2022-09-01T09:40:05;23.00;92.60
8611;DHT22;4343;53.648;10.098;2022-09-01T09:42:35;23.10;92.10
8611;DHT22;4343;53.648;10.098;2022-09-01T09:45:04;23.20;91.80
8611;DHT22;4343;53.648;10.098;2022-09-01T09:47:38;23.40;91.40
8611;DHT22;4343;53.648;10.098;2022-09-01T09:52:45;23.50;90.50
8611;DHT22;4343;53.648;10.098;2022-09-01T09:55:26;23.50;90.70
8611;DHT22;4343;53.648;10.098;2022-09-01T09:58:08;23.50;90.90
8611;DHT22;4343;53.648;10.098;2022-09-01T10:00:34;23.50;91.20
8611;DHT22;4343;53.648;10.098;2022-09-01T10:03:07;23.40;90.90
8611;DHT22;4343;53.648;10.098;2022-09-01T10:05:39;23.50;90.90
8611;DHT22;4343;53.648;10.098;2022-09-01T10:10:59;23.60;91.00
8611;DHT22;4343;53.648;10.098;2022-09-01T10:13:26;23.80;91.00
8611;DHT22;4343;53.648;10.098;2022-09-01T10:15:58;23.90;91.10
8611;DHT22;4343;53.648;10.098;2022-09-01T10:18:44;24.00;90.10
8611;DHT22;4343;53.648;10.098;2022-09-01T10:21:27;24.10;90.10
8611;DHT22;4343;53.648;10.098;2022-09-01T10:23:54;24.10;89.90
8611;DHT22;4343;53.648;10.098;2022-09-01T10:26:36;24.00;89.90
8611;DHT22;4343;53.648;10.098;2022-09-01T10:29:19;23.90;89.70
8611;DHT22;4343;53.648;10.098;2022-09-01T10:31:46;23.70;90.00
8611;DHT22;4343;53.648;10.098;2022-09-01T10:34:14;23.60;90.20
8611;DHT22;4343;53.648;10.098;2022-09-01T10:36:43;23.50;90.70
8611;DHT22;4343;53.648;10.098;2022-09-01T10:39:12;23.50;90.60
8611;DHT22;4343;53.648;10.098;2022-09-01T10:41:43;23.50;91.10
8611;DHT22;4343;53.648;10.098;2022-09-01T10:44:10;23.50;90.50
8611;DHT22;4343;53.648;10.098;2022-09-01T10:46:43;23.50;90.50
8611;DHT22;4343;53.648;10.098;2022-09-01T10:51:58;23.50;90.60
8611;DHT22;4343;53.648;10.098;2022-09-01T10:57:09;23.40;90.80
8611;DHT22;4343;53.648;10.098;2022-09-01T10:59:35;23.30;90.90
8611;DHT22;4343;53.648;10.098;2022-09-01T11:02:12;23.20;90.80
8611;DHT22;4343;53.648;10.098;2022-09-01T11:07:28;23.30;91.10
8611;DHT22;4343;53.648;10.098;2022-09-01T11:20:23;24.20;87.60
8611;DHT22;4343;53.648;10.098;2022-09-01T11:23:00;24.40;87.60
8611;DHT22;4343;53.648;10.098;2022-09-01T11:25:44;24.50;88.00
8611;DHT22;4343;53.648;10.098;2022-09-01T11:30:48;24.70;84.60
8611;DHT22;4343;53.648;10.098;2022-09-01T11:36:02;24.50;84.40
8611;DHT22;4343;53.648;10.098;2022-09-01T11:38:37;24.40;85.20
8611;DHT22;4343;53.648;10.098;2022-09-01T11:41:08;24.50;87.00
8611;DHT22;4343;53.648;10.098;2022-09-01T11:43:35;24.50;87.90
8611;DHT22;4343;53.648;10.098;2022-09-01T11:46:09;24.60;88.10
8611;DHT22;4343;53.648;10.098;2022-09-01T11:48:38;24.90;86.80
8611;DHT22;4343;53.648;10.098;2022-09-01T11:51:04;25.00;85.90
8611;DHT22;4343;53.648;10.098;2022-09-01T11:53:30;25.20;85.10
8611;DHT22;4343;53.648;10.098;2022-09-01T11:56:11;25.40;85.20
8611;DHT22;4343;53.648;10.098;2022-09-01T11:58:39;25.60;84.70
8611;DHT22;4343;53.648;10.098;2022-09-01T12:01:18;25.70;84.50
8611;DHT22;4343;53.648;10.098;2022-09-01T12:03:46;25.80;84.50
8611;DHT22;4343;53.648;10.098;2022-09-01T12:06:20;25.70;84.00
8611;DHT22;4343;53.648;10.098;2022-09-01T12:09:01;25.50;84.40
8611;DHT22;4343;53.648;10.098;2022-09-01T12:11:31;25.50;85.70
8611;DHT22;4343;53.648;10.098;2022-09-01T12:14:07;25.40;86.00
8611;DHT22;4343;53.648;10.098;2022-09-01T12:16:35;25.30;86.50
8611;DHT22;4343;53.648;10.098;2022-09-01T12:19:04;25.30;87.10
8611;DHT22;4343;53.648;10.098;2022-09-01T12:21:35;25.20;87.00
8611;DHT22;4343;53.648;10.098;2022-09-01T12:24:22;25.30;86.40
8611;DHT22;4343;53.648;10.098;2022-09-01T12:26:50;25.40;86.60
8611;DHT22;4343;53.648;10.098;2022-09-01T12:29:18;25.60;86.10
8611;DHT22;4343;53.648;10.098;2022-09-01T12:31:46;25.80;84.40
8611;DHT22;4343;53.648;10.098;2022-09-01T12:37:22;25.90;77.50
8611;DHT22;4343;53.648;10.098;2022-09-01T12:39:53;25.70;79.10
8611;DHT22;4343;53.648;10.098;2022-09-01T12:45:03;25.40;80.20
8611;DHT22;4343;53.648;10.098;2022-09-01T12:50:31;25.00;77.20
8611;DHT22;4343;53.648;10.098;2022-09-01T12:52:49;24.80;78.20
8611;DHT22;4343;53.648;10.098;2022-09-01T12:55:22;24.80;80.50
8611;DHT22;4343;53.648;10.098;2022-09-01T12:57:51;24.90;81.30
8611;DHT22;4343;53.648;10.098;2022-09-01T13:00:20;25.10;82.80
8611;DHT22;4343;53.648;10.098;2022-09-01T13:05:38;25.20;82.60
8611;DHT22;4343;53.648;10.098;2022-09-01T13:08:11;25.10;82.40
8611;DHT22;4343;53.648;10.098;2022-09-01T13:10:48;25.10;82.60
8611;DHT22;4343;53.648;10.098;2022-09-01T13:13:15;25.10;83.20
8611;DHT22;4343;53.648;10.098;2022-09-01T13:15:44;25.00;83.40
8611;DHT22;4343;53.648;10.098;2022-09-01T13:18:13;24.90;84.00
8611;DHT22;4343;53.648;10.098;2022-09-01T13:20:38;24.70;84.00
8611;DHT22;4343;53.648;10.098;2022-09-01T13:23:04;24.60;84.50
8611;DHT22;4343;53.648;10.098;2022-09-01T13:25:29;24.50;84.40
8611;DHT22;4343;53.648;10.098;2022-09-01T13:27:55;24.40;84.30
8611;DHT22;4343;53.648;10.098;2022-09-01T13:30:24;24.30;84.80
8611;DHT22;4343;53.648;10.098;2022-09-01T13:32:53;24.10;85.10
8611;DHT22;4343;53.648;10.098;2022-09-01T13:35:20;24.00;85.80
8611;DHT22;4343;53.648;10.098;2022-09-01T13:37:46;23.90;85.40
8611;DHT22;4343;53.648;10.098;2022-09-01T13:40:13;23.90;85.80
8611;DHT22;4343;53.648;10.098;2022-09-01T13:45:09;24.00;86.60
8611;DHT22;4343;53.648;10.098;2022-09-01T13:47:40;24.20;86.40
8611;DHT22;4343;53.648;10.098;2022-09-01T13:50:06;24.50;86.60
8611;DHT22;4343;53.648;10.098;2022-09-01T13:52:33;24.80;86.40
8611;DHT22;4343;53.648;10.098;2022-09-01T13:54:58;25.10;83.20
8611;DHT22;4343;53.648;10.098;2022-09-01T13:57:25;25.30;82.50
8611;DHT22;4343;53.648;10.098;2022-09-01T13:59:51;25.60;80.20
8611;DHT22;4343;53.648;10.098;2022-09-01T14:02:17;25.70;80.50
8611;DHT22;4343;53.648;10.098;2022-09-01T14:04:42;25.90;80.80
8611;DHT22;4343;53.648;10.098;2022-09-01T14:07:08;26.00;79.70
8611;DHT22;4343;53.648;10.098;2022-09-01T14:09:33;26.00;79.90
8611;DHT22;4343;53.648;10.098;2022-09-01T14:11:59;26.10;80.40
8611;DHT22;4343;53.648;10.098;2022-09-01T14:14:25;26.00;80.10
8611;DHT22;4343;53.648;10.098;2022-09-01T14:16:51;25.90;80.40
8611;DHT22;4343;53.648;10.098;2022-09-01T14:19:16;25.80;81.00
8611;DHT22;4343;53.648;10.098;2022-09-01T14:21:42;25.60;81.00
8611;DHT22;4343;53.648;10.098;2022-09-01T14:24:08;25.50;81.60
8611;DHT22;4343;53.648;10.098;2022-09-01T14:26:34;25.40;81.80
8611;DHT22;4343;53.648;10.098;2022-09-01T14:29:00;25.20;81.70
8611;DHT22;4343;53.648;10.098;2022-09-01T14:31:27;25.10;81.90
8611;DHT22;4343;53.648;10.098;2022-09-01T14:33:54;25.00;82.10
8611;DHT22;4343;53.648;10.098;2022-09-01T14:36:22;25.00;82.50
8611;DHT22;4343;53.648;10.098;2022-09-01T14:38:48;24.90;82.10
8611;DHT22;4343;53.648;10.098;2022-09-01T14:41:18;24.90;81.90
8611;DHT22;4343;53.648;10.098;2022-09-01T14:43:46;24.80;82.50
8611;DHT22;4343;53.648;10.098;2022-09-01T14:46:11;24.70;82.40
8611;DHT22;4343;53.648;10.098;2022-09-01T14:48:38;24.50;82.10
8611;DHT22;4343;53.648;10.098;2022-09-01T14:51:05;24.40;82.50
8611;DHT22;4343;53.648;10.098;2022-09-01T14:53:31;24.30;82.70
8611;DHT22;4343;53.648;10.098;2022-09-01T14:55:58;24.10;83.20
8611;DHT22;4343;53.648;10.098;2022-09-01T14:58:25;24.00;83.60
8611;DHT22;4343;53.648;10.098;2022-09-01T15:00:52;23.90;83.70
8611;DHT22;4343;53.648;10.098;2022-09-01T15:03:20;23.80;83.60
8611;DHT22;4343;53.648;10.098;2022-09-01T15:05:46;23.70;84.30
8611;DHT22;4343;53.648;10.098;2022-09-01T15:08:11;23.60;84.80
8611;DHT22;4343;53.648;10.098;2022-09-01T15:10:38;23.50;85.30
8611;DHT22;4343;53.648;10.098;2022-09-01T15:13:04;23.40;85.90
8611;DHT22;4343;53.648;10.098;2022-09-01T15:15:30;23.30;86.10
8611;DHT22;4343;53.648;10.098;2022-09-01T15:17:58;23.20;86.50
8611;DHT22;4343;53.648;10.098;2022-09-01T15:20:24;23.10;86.50
8611;DHT22;4343;53.648;10.098;2022-09-01T15:23:08;23.00;87.10
8611;DHT22;4343;53.648;10.098;2022-09-01T15:25:34;22.90;87.30
8611;DHT22;4343;53.648;10.098;2022-09-01T15:28:00;22.80;87.50
8611;DHT22;4343;53.648;10.098;2022-09-01T15:30:26;22.80;88.10
8611;DHT22;4343;53.648;10.098;2022-09-01T15:32:52;22.70;88.40
8611;DHT22;4343;53.648;10.098;2022-09-01T15:35:19;22.60;88.90
8611;DHT22;4343;53.648;10.098;2022-09-01T15:37:46;22.50;89.40
8611;DHT22;4343;53.648;10.098;2022-09-01T15:40:13;22.40;89.10
8611;DHT22;4343;53.648;10.098;2022-09-01T15:42:39;22.40;89.10
8611;DHT22;4343;53.648;10.098;2022-09-01T15:45:08;22.30;89.10
8611;DHT22;4343;53.648;10.098;2022-09-01T15:47:34;22.20;89.10
8611;DHT22;4343;53.648;10.098;2022-09-01T15:50:02;22.20;89.50
8611;DHT22;4343;53.648;10.098;2022-09-01T15:52:28;22.10;89.40
8611;DHT22;4343;53.648;10.098;2022-09-01T15:54:54;22.00;89.20
8611;DHT22;4343;53.648;10.098;2022-09-01T15:57:19;21.90;89.00
8611;DHT22;4343;53.648;10.098;2022-09-01T15:59:45;21.80;90.00
8611;DHT22;4343;53.648;10.098;2022-09-01T16:02:11;21.70;90.10
8611;DHT22;4343;53.648;10.098;2022-09-01T16:04:39;21.60;90.20
8611;DHT22;4343;53.648;10.098;2022-09-01T16:07:04;21.50;90.30
8611;DHT22;4343;53.648;10.098;2022-09-01T16:09:30;21.50;90.40
8611;DHT22;4343;53.648;10.098;2022-09-01T16:11:56;21.40;90.50
8611;DHT22;4343;53.648;10.098;2022-09-01T16:14:22;21.30;90.20
8611;DHT22;4343;53.648;10.098;2022-09-01T16:17:05;21.30;90.20
8611;DHT22;4343;53.648;10.098;2022-09-01T16:19:52;21.20;90.30
8611;DHT22;4343;53.648;10.098;2022-09-01T16:24:51;21.10;90.30
8611;DHT22;4343;53.648;10.098;2022-09-01T16:27:21;21.10;90.40
8611;DHT22;4343;53.648;10.098;2022-09-01T16:29:58;21.00;90.40
8611;DHT22;4343;53.648;10.098;2022-09-01T16:32:25;21.00;90.30
8611;DHT22;4343;53.648;10.098;2022-09-01T16:34:51;21.00;90.30
8611;DHT22;4343;53.648;10.098;2022-09-01T16:39:50;20.90;90.30
8611;DHT22;4343;53.648;10.098;2022-09-01T16:42:39;20.90;90.30
8611;DHT22;4343;53.648;10.098;2022-09-01T16:48:20;20.80;90.40
8611;DHT22;4343;53.648;10.098;2022-09-01T16:56:53;20.70;90.60
8611;DHT22;4343;53.648;10.098;2022-09-01T17:04:41;20.60;90.80
8611;DHT22;4343;53.648;10.098;2022-09-01T17:12:53;20.50;90.90
8611;DHT22;4343;53.648;10.098;2022-09-01T17:15:34;20.40;90.90
8611;DHT22;4343;53.648;10.098;2022-09-01T17:21:08;20.30;90.70